sensor_id;sensor_type;location;lat;lon;timestamp;pressure;altitude;pressure_sealevel;temperature;humidity
70256;BME280;57669;52.624;-1.688;2023-02-14T00:01:25;102520.75;;;2.96;46.36
70256;BME280;57669;52.624;-1.688;2023-02-14T00:03:50;102526.85;;;3.23;46.74
70256;BME280;57669;52.624;-1.688;2023-02-14T00:06:16;102524.30;;;2.80;46.32
70256;BME280;57669;52.624;-1.688;2023-02-14T00:08:41;102524.96;;;3.15;46.58
70256;BME280;57669;52.624;-1.688;2023-02-14T00:11:07;102523.85;;;2.69;47.95
70256;BME280;57669;52.624;-1.688;2023-02-14T00:13:33;102522.71;;;2.54;48.40
70256;BME280;57669;52.624;-1.688;2023-02-14T00:15:58;102520.03;;;2.63;48.65
70256;BME280;57669;52.624;-1.688;2023-02-14T00:18:23;102519.15;;;2.60;49.05
70256;BME280;57669;52.624;-1.688;2023-02-14T00:20:49;102525.09;;;2.43;48.67
70256;BME280;57669;52.624;-1.688;2023-02-14T00:23:15;102527.17;;;2.35;48.97
70256;BME280;57669;52.624;-1.688;2023-02-14T00:25:39;102525.24;;;2.93;47.89
70256;BME280;57669;52.624;-1.688;2023-02-14T00:28:05;102525.34;;;2.97;46.88
70256;BME280;57669;52.624;-1.688;2023-02-14T00:30:30;102526.54;;;2.56;47.76
70256;BME280;57669;52.624;-1.688;2023-02-14T00:32:55;102525.02;;;2.42;47.76
70256;BME280;57669;52.624;-1.688;2023-02-14T00:35:21;102527.12;;;2.81;46.92
70256;BME280;57669;52.624;-1.688;2023-02-14T00:37:46;102525.11;;;2.35;47.75
70256;BME280;57669;52.624;-1.688;2023-02-14T00:40:14;102527.81;;;2.75;46.96
70256;BME280;57669;52.624;-1.688;2023-02-14T00:42:37;102525.90;;;2.52;47.96
70256;BME280;57669;52.624;-1.688;2023-02-14T00:45:02;102525.85;;;2.44;47.30
70256;BME280;57669;52.624;-1.688;2023-02-14T00:47:28;102522.52;;;2.77;47.54
70256;BME280;57669;52.624;-1.688;2023-02-14T00:49:53;102526.23;;;2.46;48.13
70256;BME280;57669;52.624;-1.688;2023-02-14T00:52:18;102515.47;;;2.71;47.87
70256;BME280;57669;52.624;-1.688;2023-02-14T00:54:44;102519.57;;;2.21;48.91
70256;BME280;57669;52.624;-1.688;2023-02-14T00:57:09;102512.95;;;2.55;47.98
70256;BME280;57669;52.624;-1.688;2023-02-14T00:59:34;102503.39;;;2.42;48.32
70256;BME280;57669;52.624;-1.688;2023-02-14T01:02:00;102510.29;;;1.84;50.48
70256;BME280;57669;52.624;-1.688;2023-02-14T01:04:25;102507.53;;;2.53;48.65
70256;BME280;57669;52.624;-1.688;2023-02-14T01:06:51;102501.87;;;2.46;47.91
70256;BME280;57669;52.624;-1.688;2023-02-14T01:09:16;102508.80;;;2.02;49.30
70256;BME280;57669;52.624;-1.688;2023-02-14T01:11:42;102506.32;;;2.47;48.94
70256;BME280;57669;52.624;-1.688;2023-02-14T01:14:07;102504.51;;;2.65;48.22
70256;BME280;57669;52.624;-1.688;2023-02-14T01:16:33;102504.72;;;2.27;48.68
70256;BME280;57669;52.624;-1.688;2023-02-14T01:18:59;102514.54;;;1.72;49.80
70256;BME280;57669;52.624;-1.688;2023-02-14T01:21:26;102512.27;;;1.50;50.64
70256;BME280;57669;52.624;-1.688;2023-02-14T01:23:52;102506.95;;;1.88;49.63
70256;BME280;57669;52.624;-1.688;2023-02-14T01:26:16;102496.06;;;2.65;48.20
70256;BME280;57669;52.624;-1.688;2023-02-14T01:28:42;102508.41;;;1.54;49.12
70256;BME280;57669;52.624;-1.688;2023-02-14T01:31:09;102499.31;;;2.05;48.06
70256;BME280;57669;52.624;-1.688;2023-02-14T01:33:32;102494.25;;;2.56;47.53
70256;BME280;57669;52.624;-1.688;2023-02-14T01:35:58;102498.19;;;2.55;47.53
70256;BME280;57669;52.624;-1.688;2023-02-14T01:38:23;102490.46;;;2.13;47.40
70256;BME280;57669;52.624;-1.688;2023-02-14T01:40:49;102486.55;;;2.08;47.46
70256;BME280;57669;52.624;-1.688;2023-02-14T01:43:15;102494.46;;;1.80;48.64
70256;BME280;57669;52.624;-1.688;2023-02-14T01:45:39;102496.12;;;1.67;49.32
70256;BME280;57669;52.624;-1.688;2023-02-14T01:48:05;102494.55;;;1.85;48.38
70256;BME280;57669;52.624;-1.688;2023-02-14T01:50:33;102491.47;;;2.09;47.75
70256;BME280;57669;52.624;-1.688;2023-02-14T01:52:58;102498.75;;;1.46;49.21
70256;BME280;57669;52.624;-1.688;2023-02-14T01:55:24;102511.16;;;1.49;49.38
70256;BME280;57669;52.624;-1.688;2023-02-14T01:57:50;102492.84;;;2.27;47.83
70256;BME280;57669;52.624;-1.688;2023-02-14T02:00:14;102508.31;;;1.16;49.99
70256;BME280;57669;52.624;-1.688;2023-02-14T02:02:38;102509.59;;;1.83;49.73
70256;BME280;57669;52.624;-1.688;2023-02-14T02:05:04;102503.59;;;2.02;48.36
70256;BME280;57669;52.624;-1.688;2023-02-14T02:07:29;102507.16;;;1.95;48.35
70256;BME280;57669;52.624;-1.688;2023-02-14T02:09:58;102497.11;;;1.83;48.79
70256;BME280;57669;52.624;-1.688;2023-02-14T02:12:21;102493.87;;;1.49;50.18
70256;BME280;57669;52.624;-1.688;2023-02-14T02:14:47;102497.24;;;1.15;50.71
70256;BME280;57669;52.624;-1.688;2023-02-14T02:17:19;102505.39;;;0.96;52.22
70256;BME280;57669;52.624;-1.688;2023-02-14T02:22:14;102499.45;;;1.76;49.15
70256;BME280;57669;52.624;-1.688;2023-02-14T02:24:36;102503.06;;;1.58;49.54
70256;BME280;57669;52.624;-1.688;2023-02-14T02:27:04;102496.30;;;1.05;50.72
70256;BME280;57669;52.624;-1.688;2023-02-14T02:34:24;102498.89;;;0.39;54.25
70256;BME280;57669;52.624;-1.688;2023-02-14T02:39:09;102502.26;;;1.38;51.15
70256;BME280;57669;52.624;-1.688;2023-02-14T02:41:34;102498.72;;;0.91;52.14
70256;BME280;57669;52.624;-1.688;2023-02-14T02:43:54;102499.38;;;0.38;52.98
70256;BME280;57669;52.624;-1.688;2023-02-14T02:46:23;102489.75;;;1.05;51.61
70256;BME280;57669;52.624;-1.688;2023-02-14T02:48:46;102499.55;;;0.64;52.34
70256;BME280;57669;52.624;-1.688;2023-02-14T02:51:11;102494.29;;;0.37;53.21
70256;BME280;57669;52.624;-1.688;2023-02-14T02:53:38;102485.01;;;0.77;52.58
70256;BME280;57669;52.624;-1.688;2023-02-14T02:56:01;102483.30;;;1.14;54.13
70256;BME280;57669;52.624;-1.688;2023-02-14T02:58:27;102484.83;;;1.10;54.35
70256;BME280;57669;52.624;-1.688;2023-02-14T03:00:51;102483.04;;;1.31;54.27
70256;BME280;57669;52.624;-1.688;2023-02-14T03:03:15;102486.66;;;1.56;56.61
70256;BME280;57669;52.624;-1.688;2023-02-14T03:05:40;102485.21;;;1.45;56.37
70256;BME280;57669;52.624;-1.688;2023-02-14T03:08:05;102483.57;;;1.07;57.94
70256;BME280;57669;52.624;-1.688;2023-02-14T03:10:34;102482.98;;;1.46;56.66
70256;BME280;57669;52.624;-1.688;2023-02-14T03:15:33;102475.10;;;1.39;56.83
70256;BME280;57669;52.624;-1.688;2023-02-14T03:17:56;102467.90;;;1.52;58.29
70256;BME280;57669;52.624;-1.688;2023-02-14T03:20:15;102462.29;;;0.47;61.65
70256;BME280;57669;52.624;-1.688;2023-02-14T03:22:44;102463.18;;;0.94;59.86
70256;BME280;57669;52.624;-1.688;2023-02-14T03:25:10;102452.50;;;0.54;61.80
70256;BME280;57669;52.624;-1.688;2023-02-14T03:27:31;102448.55;;;1.10;60.72
70256;BME280;57669;52.624;-1.688;2023-02-14T03:30:02;102436.60;;;1.14;60.17
70256;BME280;57669;52.624;-1.688;2023-02-14T03:32:27;102440.89;;;1.17;60.59
70256;BME280;57669;52.624;-1.688;2023-02-14T03:34:51;102443.24;;;0.83;62.67
70256;BME280;57669;52.624;-1.688;2023-02-14T03:37:14;102442.00;;;-0.42;65.61
70256;BME280;57669;52.624;-1.688;2023-02-14T03:39:40;102452.20;;;0.80;61.76
70256;BME280;57669;52.624;-1.688;2023-02-14T03:42:04;102442.06;;;0.86;60.27
70256;BME280;57669;52.624;-1.688;2023-02-14T03:44:27;102447.87;;;0.97;60.35
70256;BME280;57669;52.624;-1.688;2023-02-14T03:46:54;102454.55;;;0.49;61.65
70256;BME280;57669;52.624;-1.688;2023-02-14T03:49:20;102453.58;;;1.02;59.71
70256;BME280;57669;52.624;-1.688;2023-02-14T03:51:44;102456.68;;;1.45;58.69
70256;BME280;57669;52.624;-1.688;2023-02-14T03:54:09;102451.35;;;0.69;60.11
70256;BME280;57669;52.624;-1.688;2023-02-14T03:56:36;102460.77;;;1.58;58.10
70256;BME280;57669;52.624;-1.688;2023-02-14T03:59:01;102457.04;;;0.99;59.54
70256;BME280;57669;52.624;-1.688;2023-02-14T04:01:29;102463.75;;;1.48;58.03
70256;BME280;57669;52.624;-1.688;2023-02-14T04:03:51;102463.44;;;1.64;57.58
70256;BME280;57669;52.624;-1.688;2023-02-14T04:06:16;102460.88;;;2.07;56.72
70256;BME280;57669;52.624;-1.688;2023-02-14T04:08:40;102453.54;;;1.98;55.81
70256;BME280;57669;52.624;-1.688;2023-02-14T04:11:05;102448.25;;;1.86;55.96
70256;BME280;57669;52.624;-1.688;2023-02-14T04:13:31;102460.00;;;1.25;57.69
70256;BME280;57669;52.624;-1.688;2023-02-14T04:15:56;102462.63;;;1.65;57.54
70256;BME280;57669;52.624;-1.688;2023-02-14T04:18:21;102464.01;;;1.69;58.54
70256;BME280;57669;52.624;-1.688;2023-02-14T04:20:48;102473.70;;;1.21;59.49
70256;BME280;57669;52.624;-1.688;2023-02-14T04:23:13;102477.43;;;1.13;60.23
70256;BME280;57669;52.624;-1.688;2023-02-14T04:25:38;102470.16;;;1.57;59.27
70256;BME280;57669;52.624;-1.688;2023-02-14T04:28:04;102459.14;;;1.72;58.55
70256;BME280;57669;52.624;-1.688;2023-02-14T04:30:28;102461.57;;;1.80;58.22
70256;BME280;57669;52.624;-1.688;2023-02-14T04:32:53;102453.45;;;0.05;62.32
70256;BME280;57669;52.624;-1.688;2023-02-14T04:35:19;102459.59;;;0.96;61.25
70256;BME280;57669;52.624;-1.688;2023-02-14T04:37:44;102446.19;;;0.53;64.14
70256;BME280;57669;52.624;-1.688;2023-02-14T04:40:10;102452.17;;;0.59;64.09
70256;BME280;57669;52.624;-1.688;2023-02-14T04:42:35;102460.35;;;-0.51;66.90
70256;BME280;57669;52.624;-1.688;2023-02-14T04:45:00;102462.71;;;-0.14;66.81
70256;BME280;57669;52.624;-1.688;2023-02-14T04:47:26;102469.14;;;0.67;64.30
70256;BME280;57669;52.624;-1.688;2023-02-14T04:49:51;102468.18;;;0.38;65.28
70256;BME280;57669;52.624;-1.688;2023-02-14T04:52:16;102464.86;;;1.07;62.70
70256;BME280;57669;52.624;-1.688;2023-02-14T04:54:42;102469.47;;;0.70;63.16
70256;BME280;57669;52.624;-1.688;2023-02-14T04:57:07;102471.74;;;0.56;62.77
70256;BME280;57669;52.624;-1.688;2023-02-14T04:59:33;102469.41;;;0.89;62.33
70256;BME280;57669;52.624;-1.688;2023-02-14T05:01:58;102469.12;;;0.61;63.33
70256;BME280;57669;52.624;-1.688;2023-02-14T05:04:24;102465.18;;;0.48;63.46
70256;BME280;57669;52.624;-1.688;2023-02-14T05:06:49;102461.16;;;0.79;63.92
70256;BME280;57669;52.624;-1.688;2023-02-14T05:09:15;102462.29;;;1.02;62.58
70256;BME280;57669;52.624;-1.688;2023-02-14T05:11:40;102462.08;;;1.21;62.06
70256;BME280;57669;52.624;-1.688;2023-02-14T05:14:06;102471.82;;;0.97;63.07
70256;BME280;57669;52.624;-1.688;2023-02-14T05:16:31;102476.41;;;1.49;62.12
70256;BME280;57669;52.624;-1.688;2023-02-14T05:18:56;102466.03;;;1.17;61.48
70256;BME280;57669;52.624;-1.688;2023-02-14T05:21:23;102467.02;;;0.85;62.24
70256;BME280;57669;52.624;-1.688;2023-02-14T05:23:48;102482.24;;;1.70;60.15
70256;BME280;57669;52.624;-1.688;2023-02-14T05:26:13;102494.76;;;1.22;60.50
70256;BME280;57669;52.624;-1.688;2023-02-14T05:28:38;102477.43;;;1.54;59.90
70256;BME280;57669;52.624;-1.688;2023-02-14T05:31:04;102468.51;;;1.97;58.41
70256;BME280;57669;52.624;-1.688;2023-02-14T05:33:29;102475.62;;;0.78;61.86
70256;BME280;57669;52.624;-1.688;2023-02-14T05:35:57;102487.81;;;0.67;62.72
70256;BME280;57669;52.624;-1.688;2023-02-14T05:38:20;102474.78;;;1.16;61.75
70256;BME280;57669;52.624;-1.688;2023-02-14T05:40:45;102462.09;;;1.24;60.90
70256;BME280;57669;52.624;-1.688;2023-02-14T05:43:10;102455.21;;;1.15;61.36
70256;BME280;57669;52.624;-1.688;2023-02-14T05:45:36;102455.70;;;0.69;63.61
70256;BME280;57669;52.624;-1.688;2023-02-14T05:48:02;102465.34;;;-0.24;63.87
70256;BME280;57669;52.624;-1.688;2023-02-14T05:50:28;102469.26;;;0.89;62.15
70256;BME280;57669;52.624;-1.688;2023-02-14T05:52:53;102466.96;;;1.55;60.34
70256;BME280;57669;52.624;-1.688;2023-02-14T05:55:18;102467.43;;;1.80;59.62
70256;BME280;57669;52.624;-1.688;2023-02-14T05:57:43;102468.35;;;0.94;62.04
70256;BME280;57669;52.624;-1.688;2023-02-14T06:00:10;102461.06;;;1.37;60.81
70256;BME280;57669;52.624;-1.688;2023-02-14T06:02:34;102462.30;;;0.48;63.25
70256;BME280;57669;52.624;-1.688;2023-02-14T06:04:59;102464.21;;;1.10;62.19
70256;BME280;57669;52.624;-1.688;2023-02-14T06:07:24;102458.68;;;0.48;63.16
70256;BME280;57669;52.624;-1.688;2023-02-14T06:09:49;102472.49;;;1.29;61.13
70256;BME280;57669;52.624;-1.688;2023-02-14T06:12:15;102472.58;;;1.52;60.17
70256;BME280;57669;52.624;-1.688;2023-02-14T06:14:40;102479.40;;;1.90;59.22
70256;BME280;57669;52.624;-1.688;2023-02-14T06:17:06;102475.58;;;1.72;59.85
70256;BME280;57669;52.624;-1.688;2023-02-14T06:19:31;102470.66;;;0.98;63.09
70256;BME280;57669;52.624;-1.688;2023-02-14T06:21:56;102474.42;;;0.75;62.90
70256;BME280;57669;52.624;-1.688;2023-02-14T06:24:22;102479.18;;;0.76;64.60
70256;BME280;57669;52.624;-1.688;2023-02-14T06:26:47;102473.91;;;-0.12;66.64
70256;BME280;57669;52.624;-1.688;2023-02-14T06:29:15;102483.22;;;-0.28;67.26
70256;BME280;57669;52.624;-1.688;2023-02-14T06:31:39;102480.43;;;1.18;63.26
70256;BME280;57669;52.624;-1.688;2023-02-14T06:34:04;102485.00;;;1.18;62.63
70256;BME280;57669;52.624;-1.688;2023-02-14T06:36:29;102483.50;;;1.52;62.69
70256;BME280;57669;52.624;-1.688;2023-02-14T06:38:55;102484.47;;;1.77;61.45
70256;BME280;57669;52.624;-1.688;2023-02-14T06:41:20;102472.39;;;1.98;60.37
70256;BME280;57669;52.624;-1.688;2023-02-14T06:43:46;102483.32;;;1.45;62.14
70256;BME280;57669;52.624;-1.688;2023-02-14T06:46:11;102482.49;;;2.36;60.09
70256;BME280;57669;52.624;-1.688;2023-02-14T06:48:37;102487.79;;;2.02;61.69
70256;BME280;57669;52.624;-1.688;2023-02-14T06:51:02;102490.46;;;1.80;61.19
70256;BME280;57669;52.624;-1.688;2023-02-14T06:53:27;102488.77;;;1.23;63.15
70256;BME280;57669;52.624;-1.688;2023-02-14T06:55:52;102481.66;;;1.96;61.25
70256;BME280;57669;52.624;-1.688;2023-02-14T06:58:17;102489.30;;;1.96;61.65
70256;BME280;57669;52.624;-1.688;2023-02-14T07:00:43;102482.66;;;2.62;59.42
70256;BME280;57669;52.624;-1.688;2023-02-14T07:03:09;102480.58;;;2.01;60.47
70256;BME280;57669;52.624;-1.688;2023-02-14T07:05:35;102484.28;;;2.56;60.39
70256;BME280;57669;52.624;-1.688;2023-02-14T07:08:00;102493.52;;;1.90;61.13
70256;BME280;57669;52.624;-1.688;2023-02-14T07:10:26;102494.07;;;2.64;59.99
70256;BME280;57669;52.624;-1.688;2023-02-14T07:12:51;102486.72;;;2.28;60.19
70256;BME280;57669;52.624;-1.688;2023-02-14T07:15:17;102480.27;;;2.71;59.25
70256;BME280;57669;52.624;-1.688;2023-02-14T07:17:43;102482.15;;;2.84;58.52
70256;BME280;57669;52.624;-1.688;2023-02-14T07:20:11;102485.38;;;2.83;57.84
70256;BME280;57669;52.624;-1.688;2023-02-14T07:22:34;102490.05;;;3.41;57.01
70256;BME280;57669;52.624;-1.688;2023-02-14T07:24:59;102489.71;;;3.01;57.80
70256;BME280;57669;52.624;-1.688;2023-02-14T07:27:24;102491.52;;;3.72;56.75
70256;BME280;57669;52.624;-1.688;2023-02-14T07:29:49;102491.14;;;2.97;57.90
70256;BME280;57669;52.624;-1.688;2023-02-14T07:32:15;102493.90;;;2.75;59.16
70256;BME280;57669;52.624;-1.688;2023-02-14T07:34:40;102497.93;;;2.71;59.40
70256;BME280;57669;52.624;-1.688;2023-02-14T07:37:05;102490.59;;;3.66;58.44
70256;BME280;57669;52.624;-1.688;2023-02-14T07:39:30;102502.40;;;2.82;60.21
70256;BME280;57669;52.624;-1.688;2023-02-14T07:41:56;102504.38;;;1.97;63.10
70256;BME280;57669;52.624;-1.688;2023-02-14T07:44:21;102504.62;;;2.96;60.66
70256;BME280;57669;52.624;-1.688;2023-02-14T07:46:47;102509.02;;;2.12;63.10
70256;BME280;57669;52.624;-1.688;2023-02-14T07:49:13;102517.89;;;2.83;62.22
70256;BME280;57669;52.624;-1.688;2023-02-14T07:51:38;102521.90;;;2.14;65.03
70256;BME280;57669;52.624;-1.688;2023-02-14T07:54:04;102523.69;;;1.38;66.87
70256;BME280;57669;52.624;-1.688;2023-02-14T07:56:29;102522.32;;;2.21;64.77
70256;BME280;57669;52.624;-1.688;2023-02-14T07:58:55;102533.48;;;1.94;65.99
70256;BME280;57669;52.624;-1.688;2023-02-14T08:01:21;102532.49;;;2.04;65.97
70256;BME280;57669;52.624;-1.688;2023-02-14T08:03:47;102537.85;;;2.36;65.77
70256;BME280;57669;52.624;-1.688;2023-02-14T08:06:12;102534.40;;;1.80;66.96
70256;BME280;57669;52.624;-1.688;2023-02-14T08:08:37;102536.10;;;2.63;64.22
70256;BME280;57669;52.624;-1.688;2023-02-14T08:11:03;102536.46;;;2.69;63.93
70256;BME280;57669;52.624;-1.688;2023-02-14T08:13:34;102531.99;;;2.97;64.45
70256;BME280;57669;52.624;-1.688;2023-02-14T08:15:53;102533.68;;;2.66;65.44
70256;BME280;57669;52.624;-1.688;2023-02-14T08:18:20;102534.56;;;2.53;65.98
70256;BME280;57669;52.624;-1.688;2023-02-14T08:20:44;102536.49;;;1.79;68.61
70256;BME280;57669;52.624;-1.688;2023-02-14T08:23:10;102537.26;;;1.67;68.24
70256;BME280;57669;52.624;-1.688;2023-02-14T08:25:35;102533.03;;;2.18;65.92
70256;BME280;57669;52.624;-1.688;2023-02-14T08:28:01;102535.07;;;1.80;67.90
70256;BME280;57669;52.624;-1.688;2023-02-14T08:30:26;102532.70;;;2.98;63.93
70256;BME280;57669;52.624;-1.688;2023-02-14T08:32:52;102536.58;;;3.04;63.39
70256;BME280;57669;52.624;-1.688;2023-02-14T08:35:17;102540.39;;;2.61;65.31
70256;BME280;57669;52.624;-1.688;2023-02-14T08:37:42;102535.32;;;3.36;63.68
70256;BME280;57669;52.624;-1.688;2023-02-14T08:40:08;102537.83;;;2.15;67.52
70256;BME280;57669;52.624;-1.688;2023-02-14T08:42:34;102537.36;;;2.42;66.35
70256;BME280;57669;52.624;-1.688;2023-02-14T08:44:59;102538.11;;;2.18;67.78
70256;BME280;57669;52.624;-1.688;2023-02-14T08:47:24;102533.63;;;2.58;66.94
70256;BME280;57669;52.624;-1.688;2023-02-14T08:49:50;102536.15;;;2.48;66.86
70256;BME280;57669;52.624;-1.688;2023-02-14T08:52:15;102534.10;;;2.53;66.54
70256;BME280;57669;52.624;-1.688;2023-02-14T08:54:40;102536.58;;;1.92;68.85
70256;BME280;57669;52.624;-1.688;2023-02-14T08:57:05;102543.13;;;1.71;69.47
70256;BME280;57669;52.624;-1.688;2023-02-14T08:59:31;102537.79;;;1.71;70.27
70256;BME280;57669;52.624;-1.688;2023-02-14T09:01:56;102545.00;;;1.90;70.88
70256;BME280;57669;52.624;-1.688;2023-02-14T09:04:21;102542.33;;;2.19;69.79
70256;BME280;57669;52.624;-1.688;2023-02-14T09:06:47;102541.01;;;2.02;69.72
70256;BME280;57669;52.624;-1.688;2023-02-14T09:09:12;102543.79;;;2.76;68.02
70256;BME280;57669;52.624;-1.688;2023-02-14T09:11:37;102540.78;;;2.40;68.44
70256;BME280;57669;52.624;-1.688;2023-02-14T09:14:02;102533.03;;;2.60;68.55
70256;BME280;57669;52.624;-1.688;2023-02-14T09:16:28;102530.85;;;2.28;68.72
70256;BME280;57669;52.624;-1.688;2023-02-14T09:18:54;102524.50;;;2.73;66.48
70256;BME280;57669;52.624;-1.688;2023-02-14T09:21:23;102521.98;;;3.21;65.81
70256;BME280;57669;52.624;-1.688;2023-02-14T09:23:45;102521.06;;;3.70;64.13
70256;BME280;57669;52.624;-1.688;2023-02-14T09:26:13;102523.81;;;3.16;65.38
70256;BME280;57669;52.624;-1.688;2023-02-14T09:28:37;102516.94;;;2.93;66.26
70256;BME280;57669;52.624;-1.688;2023-02-14T09:31:08;102518.31;;;2.99;65.89
70256;BME280;57669;52.624;-1.688;2023-02-14T09:33:28;102523.22;;;2.72;66.58
70256;BME280;57669;52.624;-1.688;2023-02-14T09:35:53;102521.45;;;3.29;65.71
70256;BME280;57669;52.624;-1.688;2023-02-14T09:38:18;102524.80;;;2.44;67.58
70256;BME280;57669;52.624;-1.688;2023-02-14T09:40:43;102528.33;;;2.45;68.88
70256;BME280;57669;52.624;-1.688;2023-02-14T09:43:13;102526.83;;;1.44;71.61
70256;BME280;57669;52.624;-1.688;2023-02-14T09:45:36;102525.11;;;2.33;68.51
70256;BME280;57669;52.624;-1.688;2023-02-14T09:48:05;102538.34;;;1.96;69.87
70256;BME280;57669;52.624;-1.688;2023-02-14T09:50:28;102536.43;;;3.76;66.11
70256;BME280;57669;52.624;-1.688;2023-02-14T09:52:52;102536.59;;;3.28;65.70
70256;BME280;57669;52.624;-1.688;2023-02-14T09:55:17;102538.02;;;3.32;65.82
70256;BME280;57669;52.624;-1.688;2023-02-14T09:57:54;102542.73;;;3.10;66.16
70256;BME280;57669;52.624;-1.688;2023-02-14T10:00:16;102540.91;;;3.90;64.27
70256;BME280;57669;52.624;-1.688;2023-02-14T10:02:39;102536.58;;;3.84;64.75
70256;BME280;57669;52.624;-1.688;2023-02-14T10:05:05;102534.83;;;3.59;65.41
70256;BME280;57669;52.624;-1.688;2023-02-14T10:07:29;102532.41;;;3.60;65.37
70256;BME280;57669;52.624;-1.688;2023-02-14T10:09:56;102534.81;;;3.58;65.61
70256;BME280;57669;52.624;-1.688;2023-02-14T10:12:20;102530.00;;;3.87;63.88
70256;BME280;57669;52.624;-1.688;2023-02-14T10:14:39;102533.87;;;3.93;64.30
70256;BME280;57669;52.624;-1.688;2023-02-14T10:17:09;102535.26;;;3.90;63.81
70256;BME280;57669;52.624;-1.688;2023-02-14T10:19:35;102542.13;;;3.21;65.14
70256;BME280;57669;52.624;-1.688;2023-02-14T10:22:02;102539.41;;;4.41;63.42
70256;BME280;57669;52.624;-1.688;2023-02-14T10:24:30;102542.82;;;3.57;65.32
70256;BME280;57669;52.624;-1.688;2023-02-14T10:26:49;102545.11;;;3.36;66.47
70256;BME280;57669;52.624;-1.688;2023-02-14T10:29:14;102540.32;;;3.27;66.72
70256;BME280;57669;52.624;-1.688;2023-02-14T10:31:42;102534.98;;;2.98;68.14
70256;BME280;57669;52.624;-1.688;2023-02-14T10:34:07;102535.44;;;3.85;66.01
70256;BME280;57669;52.624;-1.688;2023-02-14T10:36:40;102538.92;;;3.75;65.99
70256;BME280;57669;52.624;-1.688;2023-02-14T10:39:00;102535.76;;;4.07;65.04
70256;BME280;57669;52.624;-1.688;2023-02-14T10:41:28;102533.55;;;3.51;66.65
70256;BME280;57669;52.624;-1.688;2023-02-14T10:43:51;102530.01;;;3.84;66.94
70256;BME280;57669;52.624;-1.688;2023-02-14T10:46:17;102525.38;;;3.53;67.59
70256;BME280;57669;52.624;-1.688;2023-02-14T10:48:44;102524.08;;;2.94;68.26
70256;BME280;57669;52.624;-1.688;2023-02-14T10:51:05;102523.12;;;3.54;66.43
70256;BME280;57669;52.624;-1.688;2023-02-14T10:53:34;102519.23;;;3.83;66.36
70256;BME280;57669;52.624;-1.688;2023-02-14T10:55:56;102507.44;;;4.45;63.65
70256;BME280;57669;52.624;-1.688;2023-02-14T10:58:20;102511.54;;;4.73;62.83
70256;BME280;57669;52.624;-1.688;2023-02-14T11:00:50;102513.97;;;4.59;63.50
70256;BME280;57669;52.624;-1.688;2023-02-14T11:03:08;102516.80;;;4.53;63.41
70256;BME280;57669;52.624;-1.688;2023-02-14T11:05:35;102519.15;;;4.18;62.88
70256;BME280;57669;52.624;-1.688;2023-02-14T11:07:59;102523.49;;;4.83;60.96
70256;BME280;57669;52.624;-1.688;2023-02-14T11:10:28;102514.85;;;4.99;61.35
70256;BME280;57669;52.624;-1.688;2023-02-14T11:12:49;102512.32;;;5.16;60.53
70256;BME280;57669;52.624;-1.688;2023-02-14T11:15:22;102510.86;;;4.99;61.21
70256;BME280;57669;52.624;-1.688;2023-02-14T11:17:41;102515.78;;;5.49;60.05
70256;BME280;57669;52.624;-1.688;2023-02-14T11:22:32;102510.55;;;6.60;57.56
70256;BME280;57669;52.624;-1.688;2023-02-14T11:25:03;102506.94;;;5.75;59.56
70256;BME280;57669;52.624;-1.688;2023-02-14T11:27:22;102505.86;;;6.39;58.89
70256;BME280;57669;52.624;-1.688;2023-02-14T11:29:48;102503.31;;;5.67;59.45
70256;BME280;57669;52.624;-1.688;2023-02-14T11:32:15;102502.59;;;5.56;60.90
70256;BME280;57669;52.624;-1.688;2023-02-14T11:34:40;102498.79;;;5.59;60.55
70256;BME280;57669;52.624;-1.688;2023-02-14T11:37:15;102493.49;;;4.47;63.20
70256;BME280;57669;52.624;-1.688;2023-02-14T11:39:32;102491.35;;;4.85;61.58
70256;BME280;57669;52.624;-1.688;2023-02-14T11:41:57;102483.50;;;4.84;62.42
70256;BME280;57669;52.624;-1.688;2023-02-14T11:44:23;102486.09;;;5.02;61.98
70256;BME280;57669;52.624;-1.688;2023-02-14T11:46:46;102493.92;;;4.17;63.03
70256;BME280;57669;52.624;-1.688;2023-02-14T11:49:22;102488.15;;;5.17;61.87
70256;BME280;57669;52.624;-1.688;2023-02-14T11:51:42;102481.62;;;4.71;62.10
70256;BME280;57669;52.624;-1.688;2023-02-14T11:54:04;102482.91;;;4.35;62.19
70256;BME280;57669;52.624;-1.688;2023-02-14T11:58:55;102482.75;;;4.49;64.66
70256;BME280;57669;52.624;-1.688;2023-02-14T12:01:22;102483.68;;;4.58;62.58
70256;BME280;57669;52.624;-1.688;2023-02-14T12:03:46;102476.09;;;5.21;61.54
70256;BME280;57669;52.624;-1.688;2023-02-14T12:06:10;102471.59;;;5.63;60.44
70256;BME280;57669;52.624;-1.688;2023-02-14T12:08:36;102468.28;;;5.31;60.04
70256;BME280;57669;52.624;-1.688;2023-02-14T12:11:03;102472.74;;;5.77;59.65
70256;BME280;57669;52.624;-1.688;2023-02-14T12:13:26;102473.81;;;5.23;60.90
70256;BME280;57669;52.624;-1.688;2023-02-14T12:15:53;102471.10;;;5.12;61.46
70256;BME280;57669;52.624;-1.688;2023-02-14T12:18:31;102464.87;;;5.01;62.00
70256;BME280;57669;52.624;-1.688;2023-02-14T12:23:14;102452.70;;;5.38;61.47
70256;BME280;57669;52.624;-1.688;2023-02-14T12:25:38;102453.49;;;5.91;59.10
70256;BME280;57669;52.624;-1.688;2023-02-14T12:28:01;102455.77;;;5.86;58.86
70256;BME280;57669;52.624;-1.688;2023-02-14T12:30:24;102447.51;;;6.17;58.15
70256;BME280;57669;52.624;-1.688;2023-02-14T12:32:50;102446.02;;;6.77;57.52
70256;BME280;57669;52.624;-1.688;2023-02-14T12:35:16;102446.80;;;6.27;58.02
70256;BME280;57669;52.624;-1.688;2023-02-14T12:37:49;102443.45;;;6.70;57.28
70256;BME280;57669;52.624;-1.688;2023-02-14T12:40:15;102442.78;;;6.75;56.78
70256;BME280;57669;52.624;-1.688;2023-02-14T12:42:44;102443.92;;;6.55;57.92
70256;BME280;57669;52.624;-1.688;2023-02-14T12:45:03;102445.73;;;5.92;59.00
70256;BME280;57669;52.624;-1.688;2023-02-14T12:47:29;102439.59;;;6.35;58.81
70256;BME280;57669;52.624;-1.688;2023-02-14T12:50:08;102433.48;;;6.33;58.48
70256;BME280;57669;52.624;-1.688;2023-02-14T12:52:25;102442.32;;;5.07;61.44
70256;BME280;57669;52.624;-1.688;2023-02-14T12:54:48;102439.75;;;5.43;61.09
70256;BME280;57669;52.624;-1.688;2023-02-14T12:57:09;102435.80;;;5.16;61.26
70256;BME280;57669;52.624;-1.688;2023-02-14T12:59:36;102435.37;;;6.09;59.87